sensor_id;sensor_type;location;lat;lon;timestamp;P1;durP1;ratioP1;P2;durP2;ratioP2
71655;SDS011;59497;48.798;8.816;2024-01-27T00:02:10;2.05;;;1.00;;
71655;SDS011;59497;48.798;8.816;2024-01-27T00:04:36;2.73;;;0.37;;
71655;SDS011;59497;48.798;8.816;2024-01-27T00:07:02;3.67;;;0.80;;
71655;SDS011;59497;48.798;8.816;2024-01-27T00:09:27;2.70;;;0.37;;
71655;SDS011;59497;48.798;8.816;2024-01-27T00:11:52;3.67;;;0.63;;
71655;SDS011;59497;48.798;8.816;2024-01-27T00:14:17;1.93;;;0.80;;
71655;SDS011;59497;48.798;8.816;2024-01-27T00:16:43;2.77;;;0.50;;
71655;SDS011;59497;48.798;8.816;2024-01-27T00:19:08;3.80;;;0.67;;
71655;SDS011;59497;48.798;8.816;2024-01-27T00:21:33;3.00;;;1.00;;
71655;SDS011;59497;48.798;8.816;2024-01-27T00:23:58;3.73;;;1.87;;
71655;SDS011;59497;48.798;8.816;2024-01-27T00:26:26;2.88;;;1.55;;
71655;SDS011;59497;48.798;8.816;2024-01-27T00:28:51;5.40;;;2.53;;
71655;SDS011;59497;48.798;8.816;2024-01-27T00:31:16;2.50;;;1.43;;
71655;SDS011;59497;48.798;8.816;2024-01-27T00:33:41;6.00;;;1.30;;
71655;SDS011;59497;48.798;8.816;2024-01-27T00:36:07;4.10;;;1.10;;
71655;SDS011;59497;48.798;8.816;2024-01-27T00:38:32;2.57;;;1.13;;
71655;SDS011;59497;48.798;8.816;2024-01-27T00:40:57;2.67;;;0.80;;
71655;SDS011;59497;48.798;8.816;2024-01-27T00:43:22;3.37;;;0.80;;
71655;SDS011;59497;48.798;8.816;2024-01-27T00:45:48;4.57;;;0.93;;
71655;SDS011;59497;48.798;8.816;2024-01-27T00:48:13;2.10;;;1.20;;
71655;SDS011;59497;48.798;8.816;2024-01-27T00:50:38;2.63;;;1.20;;
71655;SDS011;59497;48.798;8.816;2024-01-27T00:53:03;3.03;;;1.10;;
71655;SDS011;59497;48.798;8.816;2024-01-27T00:55:29;4.30;;;1.23;;
71655;SDS011;59497;48.798;8.816;2024-01-27T00:57:54;4.57;;;1.00;;
71655;SDS011;59497;48.798;8.816;2024-01-27T01:00:19;3.33;;;0.90;;
71655;SDS011;59497;48.798;8.816;2024-01-27T01:02:44;5.90;;;1.00;;
71655;SDS011;59497;48.798;8.816;2024-01-27T01:05:10;2.40;;;0.67;;
71655;SDS011;59497;48.798;8.816;2024-01-27T01:07:35;3.17;;;0.90;;
71655;SDS011;59497;48.798;8.816;2024-01-27T01:10:00;6.97;;;1.60;;
71655;SDS011;59497;48.798;8.816;2024-01-27T01:12:25;3.63;;;0.83;;
71655;SDS011;59497;48.798;8.816;2024-01-27T01:14:51;3.10;;;0.87;;
71655;SDS011;59497;48.798;8.816;2024-01-27T01:17:16;4.00;;;1.10;;
71655;SDS011;59497;48.798;8.816;2024-01-27T01:19:41;3.67;;;1.33;;
71655;SDS011;59497;48.798;8.816;2024-01-27T01:22:07;2.73;;;1.27;;
71655;SDS011;59497;48.798;8.816;2024-01-27T01:24:32;6.53;;;1.50;;
71655;SDS011;59497;48.798;8.816;2024-01-27T01:26:57;3.70;;;1.33;;
71655;SDS011;59497;48.798;8.816;2024-01-27T01:29:22;3.70;;;1.30;;
71655;SDS011;59497;48.798;8.816;2024-01-27T01:31:48;2.17;;;0.80;;
71655;SDS011;59497;48.798;8.816;2024-01-27T01:34:13;1.67;;;0.80;;
71655;SDS011;59497;48.798;8.816;2024-01-27T01:36:38;6.77;;;1.37;;
71655;SDS011;59497;48.798;8.816;2024-01-27T01:39:03;6.75;;;1.55;;
71655;SDS011;59497;48.798;8.816;2024-01-27T01:41:28;2.40;;;0.70;;
71655;SDS011;59497;48.798;8.816;2024-01-27T01:43:53;2.60;;;0.60;;
71655;SDS011;59497;48.798;8.816;2024-01-27T01:46:19;2.97;;;0.67;;
71655;SDS011;59497;48.798;8.816;2024-01-27T01:48:44;3.23;;;0.70;;
71655;SDS011;59497;48.798;8.816;2024-01-27T01:51:09;4.73;;;1.00;;
71655;SDS011;59497;48.798;8.816;2024-01-27T01:53:35;3.83;;;0.98;;
71655;SDS011;59497;48.798;8.816;2024-01-27T01:56:01;1.70;;;0.73;;
71655;SDS011;59497;48.798;8.816;2024-01-27T01:58:26;1.87;;;0.80;;
71655;SDS011;59497;48.798;8.816;2024-01-27T02:00:58;4.03;;;0.80;;
71655;SDS011;59497;48.798;8.816;2024-01-27T02:03:24;3.30;;;0.80;;
71655;SDS011;59497;48.798;8.816;2024-01-27T02:05:49;2.87;;;0.80;;
71655;SDS011;59497;48.798;8.816;2024-01-27T02:08:14;3.50;;;0.70;;
71655;SDS011;59497;48.798;8.816;2024-01-27T02:10:39;3.73;;;0.80;;
71655;SDS011;59497;48.798;8.816;2024-01-27T02:13:21;6.07;;;0.80;;
71655;SDS011;59497;48.798;8.816;2024-01-27T02:15:47;2.90;;;0.80;;
71655;SDS011;59497;48.798;8.816;2024-01-27T02:18:12;2.70;;;0.50;;
71655;SDS011;59497;48.798;8.816;2024-01-27T02:20:37;2.60;;;0.63;;
71655;SDS011;59497;48.798;8.816;2024-01-27T02:23:03;1.40;;;0.40;;
71655;SDS011;59497;48.798;8.816;2024-01-27T02:25:30;2.28;;;0.90;;
71655;SDS011;59497;48.798;8.816;2024-01-27T02:27:55;2.83;;;0.77;;
71655;SDS011;59497;48.798;8.816;2024-01-27T02:30:20;2.07;;;0.93;;
71655;SDS011;59497;48.798;8.816;2024-01-27T02:32:45;5.93;;;1.17;;
71655;SDS011;59497;48.798;8.816;2024-01-27T02:35:10;4.67;;;1.00;;
71655;SDS011;59497;48.798;8.816;2024-01-27T02:37:36;2.77;;;0.80;;
71655;SDS011;59497;48.798;8.816;2024-01-27T02:40:01;1.07;;;0.43;;
71655;SDS011;59497;48.798;8.816;2024-01-27T02:42:26;3.90;;;1.17;;
71655;SDS011;59497;48.798;8.816;2024-01-27T02:44:51;2.37;;;1.23;;
71655;SDS011;59497;48.798;8.816;2024-01-27T02:47:17;3.57;;;0.80;;
71655;SDS011;59497;48.798;8.816;2024-01-27T02:49:42;2.47;;;0.70;;
71655;SDS011;59497;48.798;8.816;2024-01-27T02:52:07;3.97;;;1.40;;
71655;SDS011;59497;48.798;8.816;2024-01-27T02:54:34;3.40;;;1.33;;
71655;SDS011;59497;48.798;8.816;2024-01-27T02:56:59;4.93;;;1.50;;
71655;SDS011;59497;48.798;8.816;2024-01-27T02:59:24;6.67;;;2.10;;
71655;SDS011;59497;48.798;8.816;2024-01-27T03:01:49;6.30;;;2.50;;
71655;SDS011;59497;48.798;8.816;2024-01-27T03:04:14;5.67;;;2.40;;
71655;SDS011;59497;48.798;8.816;2024-01-27T03:06:39;7.57;;;2.47;;
71655;SDS011;59497;48.798;8.816;2024-01-27T03:09:05;6.33;;;2.10;;
71655;SDS011;59497;48.798;8.816;2024-01-27T03:11:30;4.40;;;2.10;;
71655;SDS011;59497;48.798;8.816;2024-01-27T03:13:56;4.47;;;2.03;;
71655;SDS011;59497;48.798;8.816;2024-01-27T03:16:21;4.03;;;1.90;;
71655;SDS011;59497;48.798;8.816;2024-01-27T03:18:46;5.63;;;1.70;;
71655;SDS011;59497;48.798;8.816;2024-01-27T03:21:11;3.93;;;2.13;;
71655;SDS011;59497;48.798;8.816;2024-01-27T03:23:36;4.23;;;1.83;;
71655;SDS011;59497;48.798;8.816;2024-01-27T03:26:02;2.83;;;1.73;;
71655;SDS011;59497;48.798;8.816;2024-01-27T03:28:27;4.07;;;1.33;;
71655;SDS011;59497;48.798;8.816;2024-01-27T03:30:52;2.97;;;1.43;;
71655;SDS011;59497;48.798;8.816;2024-01-27T03:33:17;5.53;;;1.73;;
71655;SDS011;59497;48.798;8.816;2024-01-27T03:35:43;3.87;;;1.37;;
71655;SDS011;59497;48.798;8.816;2024-01-27T03:38:08;3.23;;;1.03;;
71655;SDS011;59497;48.798;8.816;2024-01-27T03:40:33;4.10;;;0.90;;
71655;SDS011;59497;48.798;8.816;2024-01-27T03:42:59;3.73;;;1.00;;
71655;SDS011;59497;48.798;8.816;2024-01-27T03:45:24;3.47;;;1.03;;
71655;SDS011;59497;48.798;8.816;2024-01-27T03:47:49;3.87;;;1.00;;
71655;SDS011;59497;48.798;8.816;2024-01-27T03:50:14;5.53;;;1.10;;
71655;SDS011;59497;48.798;8.816;2024-01-27T03:52:40;4.77;;;0.80;;
71655;SDS011;59497;48.798;8.816;2024-01-27T03:55:06;2.50;;;1.00;;
71655;SDS011;59497;48.798;8.816;2024-01-27T03:57:31;3.10;;;0.88;;
71655;SDS011;59497;48.798;8.816;2024-01-27T03:59:56;3.07;;;1.37;;
71655;SDS011;59497;48.798;8.816;2024-01-27T04:02:22;3.73;;;1.20;;
71655;SDS011;59497;48.798;8.816;2024-01-27T04:04:47;3.20;;;0.97;;
71655;SDS011;59497;48.798;8.816;2024-01-27T04:07:12;4.57;;;1.10;;
71655;SDS011;59497;48.798;8.816;2024-01-27T04:09:37;2.93;;;1.20;;
71655;SDS011;59497;48.798;8.816;2024-01-27T04:12:02;2.60;;;0.57;;
71655;SDS011;59497;48.798;8.816;2024-01-27T04:14:28;4.03;;;1.10;;
71655;SDS011;59497;48.798;8.816;2024-01-27T04:16:53;2.33;;;0.90;;
71655;SDS011;59497;48.798;8.816;2024-01-27T04:19:18;2.93;;;1.00;;
71655;SDS011;59497;48.798;8.816;2024-01-27T04:21:43;3.73;;;1.70;;
71655;SDS011;59497;48.798;8.816;2024-01-27T04:24:08;1.90;;;1.07;;
71655;SDS011;59497;48.798;8.816;2024-01-27T04:26:34;3.60;;;0.97;;
71655;SDS011;59497;48.798;8.816;2024-01-27T04:28:59;4.97;;;1.30;;
71655;SDS011;59497;48.798;8.816;2024-01-27T04:31:24;4.43;;;1.27;;
71655;SDS011;59497;48.798;8.816;2024-01-27T04:33:49;4.83;;;1.30;;
71655;SDS011;59497;48.798;8.816;2024-01-27T04:36:24;5.33;;;1.20;;
71655;SDS011;59497;48.798;8.816;2024-01-27T04:38:49;3.78;;;1.08;;
71655;SDS011;59497;48.798;8.816;2024-01-27T04:41:14;2.83;;;0.73;;
71655;SDS011;59497;48.798;8.816;2024-01-27T04:43:39;3.33;;;1.00;;
71655;SDS011;59497;48.798;8.816;2024-01-27T04:46:05;1.90;;;0.80;;
71655;SDS011;59497;48.798;8.816;2024-01-27T04:48:30;4.57;;;0.80;;
71655;SDS011;59497;48.798;8.816;2024-01-27T04:50:55;4.80;;;0.50;;
71655;SDS011;59497;48.798;8.816;2024-01-27T04:53:21;5.28;;;1.23;;
71655;SDS011;59497;48.798;8.816;2024-01-27T04:55:46;3.47;;;0.87;;
71655;SDS011;59497;48.798;8.816;2024-01-27T04:58:11;3.80;;;1.47;;
71655;SDS011;59497;48.798;8.816;2024-01-27T05:00:37;4.10;;;1.33;;
71655;SDS011;59497;48.798;8.816;2024-01-27T05:03:02;4.93;;;1.50;;
71655;SDS011;59497;48.798;8.816;2024-01-27T05:05:29;3.65;;;1.63;;
71655;SDS011;59497;48.798;8.816;2024-01-27T05:07:55;4.33;;;1.23;;
71655;SDS011;59497;48.798;8.816;2024-01-27T05:10:20;3.65;;;1.10;;
71655;SDS011;59497;48.798;8.816;2024-01-27T05:12:47;3.07;;;1.50;;
71655;SDS011;59497;48.798;8.816;2024-01-27T05:15:12;3.53;;;1.47;;
71655;SDS011;59497;48.798;8.816;2024-01-27T05:17:37;3.53;;;1.27;;
71655;SDS011;59497;48.798;8.816;2024-01-27T05:20:02;4.13;;;1.40;;
71655;SDS011;59497;48.798;8.816;2024-01-27T05:22:29;3.58;;;1.23;;
71655;SDS011;59497;48.798;8.816;2024-01-27T05:24:54;7.30;;;1.80;;
71655;SDS011;59497;48.798;8.816;2024-01-27T05:27:20;4.13;;;2.00;;
71655;SDS011;59497;48.798;8.816;2024-01-27T05:29:45;7.17;;;2.00;;
71655;SDS011;59497;48.798;8.816;2024-01-27T05:32:10;2.87;;;1.67;;
71655;SDS011;59497;48.798;8.816;2024-01-27T05:34:35;3.97;;;1.53;;
71655;SDS011;59497;48.798;8.816;2024-01-27T05:37:00;6.13;;;1.77;;
71655;SDS011;59497;48.798;8.816;2024-01-27T05:39:26;6.60;;;1.50;;
71655;SDS011;59497;48.798;8.816;2024-01-27T05:41:52;3.07;;;1.23;;
71655;SDS011;59497;48.798;8.816;2024-01-27T05:44:17;4.30;;;1.37;;
71655;SDS011;59497;48.798;8.816;2024-01-27T05:46:42;3.43;;;1.23;;
71655;SDS011;59497;48.798;8.816;2024-01-27T05:49:07;3.00;;;1.30;;
71655;SDS011;59497;48.798;8.816;2024-01-27T05:51:33;3.47;;;1.87;;
71655;SDS011;59497;48.798;8.816;2024-01-27T05:53:58;5.68;;;1.42;;
71655;SDS011;59497;48.798;8.816;2024-01-27T05:56:23;6.27;;;1.63;;
71655;SDS011;59497;48.798;8.816;2024-01-27T05:58:49;4.73;;;1.93;;
71655;SDS011;59497;48.798;8.816;2024-01-27T06:01:14;4.47;;;1.47;;
71655;SDS011;59497;48.798;8.816;2024-01-27T06:03:42;3.97;;;1.37;;
71655;SDS011;59497;48.798;8.816;2024-01-27T06:06:07;2.97;;;1.50;;
71655;SDS011;59497;48.798;8.816;2024-01-27T06:08:33;5.60;;;1.57;;
71655;SDS011;59497;48.798;8.816;2024-01-27T06:10:58;3.40;;;1.70;;
71655;SDS011;59497;48.798;8.816;2024-01-27T06:13:23;5.33;;;1.33;;
71655;SDS011;59497;48.798;8.816;2024-01-27T06:15:48;6.37;;;1.50;;
71655;SDS011;59497;48.798;8.816;2024-01-27T06:18:13;5.70;;;1.73;;
71655;SDS011;59497;48.798;8.816;2024-01-27T06:20:39;4.97;;;1.33;;
71655;SDS011;59497;48.798;8.816;2024-01-27T06:23:05;4.10;;;1.30;;
71655;SDS011;59497;48.798;8.816;2024-01-27T06:25:31;5.57;;;1.60;;
71655;SDS011;59497;48.798;8.816;2024-01-27T06:27:56;2.90;;;0.90;;
71655;SDS011;59497;48.798;8.816;2024-01-27T06:30:21;2.30;;;1.07;;
71655;SDS011;59497;48.798;8.816;2024-01-27T06:32:46;3.60;;;0.77;;
71655;SDS011;59497;48.798;8.816;2024-01-27T06:35:12;5.13;;;1.60;;
71655;SDS011;59497;48.798;8.816;2024-01-27T06:37:37;3.17;;;1.57;;
71655;SDS011;59497;48.798;8.816;2024-01-27T06:40:02;4.37;;;1.43;;
71655;SDS011;59497;48.798;8.816;2024-01-27T06:42:28;7.20;;;2.67;;
71655;SDS011;59497;48.798;8.816;2024-01-27T06:44:53;7.87;;;3.30;;
71655;SDS011;59497;48.798;8.816;2024-01-27T06:47:18;5.23;;;1.93;;
71655;SDS011;59497;48.798;8.816;2024-01-27T06:49:43;10.27;;;2.40;;
71655;SDS011;59497;48.798;8.816;2024-01-27T06:52:08;8.57;;;4.33;;
71655;SDS011;59497;48.798;8.816;2024-01-27T06:54:34;6.53;;;4.20;;
71655;SDS011;59497;48.798;8.816;2024-01-27T06:57:01;6.88;;;3.00;;
71655;SDS011;59497;48.798;8.816;2024-01-27T06:59:26;6.87;;;3.10;;
71655;SDS011;59497;48.798;8.816;2024-01-27T07:01:51;4.80;;;2.47;;
71655;SDS011;59497;48.798;8.816;2024-01-27T07:04:17;5.67;;;3.10;;
71655;SDS011;59497;48.798;8.816;2024-01-27T07:06:42;5.50;;;2.75;;
71655;SDS011;59497;48.798;8.816;2024-01-27T07:09:08;9.20;;;3.50;;
71655;SDS011;59497;48.798;8.816;2024-01-27T07:11:34;5.70;;;3.15;;
71655;SDS011;59497;48.798;8.816;2024-01-27T07:13:59;12.87;;;4.73;;
71655;SDS011;59497;48.798;8.816;2024-01-27T07:16:24;11.73;;;5.13;;
71655;SDS011;59497;48.798;8.816;2024-01-27T07:18:50;9.30;;;4.20;;
71655;SDS011;59497;48.798;8.816;2024-01-27T07:21:16;9.50;;;4.00;;
71655;SDS011;59497;48.798;8.816;2024-01-27T07:23:42;10.98;;;4.57;;
71655;SDS011;59497;48.798;8.816;2024-01-27T07:26:09;10.13;;;4.53;;
71655;SDS011;59497;48.798;8.816;2024-01-27T07:28:34;8.68;;;4.03;;
71655;SDS011;59497;48.798;8.816;2024-01-27T07:31:00;6.93;;;3.27;;
71655;SDS011;59497;48.798;8.816;2024-01-27T07:33:25;7.93;;;3.33;;
71655;SDS011;59497;48.798;8.816;2024-01-27T07:35:50;6.17;;;3.53;;
71655;SDS011;59497;48.798;8.816;2024-01-27T07:38:15;7.50;;;3.77;;
71655;SDS011;59497;48.798;8.816;2024-01-27T07:40:41;7.23;;;2.97;;
71655;SDS011;59497;48.798;8.816;2024-01-27T07:43:06;4.77;;;3.00;;
71655;SDS011;59497;48.798;8.816;2024-01-27T07:45:31;6.13;;;2.80;;
71655;SDS011;59497;48.798;8.816;2024-01-27T07:47:57;7.27;;;3.00;;
71655;SDS011;59497;48.798;8.816;2024-01-27T07:50:22;6.37;;;2.93;;
71655;SDS011;59497;48.798;8.816;2024-01-27T07:52:48;7.97;;;3.25;;
71655;SDS011;59497;48.798;8.816;2024-01-27T07:55:13;7.33;;;3.40;;
71655;SDS011;59497;48.798;8.816;2024-01-27T07:57:38;5.27;;;3.00;;
71655;SDS011;59497;48.798;8.816;2024-01-27T08:00:04;5.90;;;3.20;;
71655;SDS011;59497;48.798;8.816;2024-01-27T08:02:31;8.13;;;3.43;;
71655;SDS011;59497;48.798;8.816;2024-01-27T08:04:56;4.37;;;2.27;;
71655;SDS011;59497;48.798;8.816;2024-01-27T08:07:21;5.23;;;2.30;;
71655;SDS011;59497;48.798;8.816;2024-01-27T08:09:46;5.87;;;3.00;;
71655;SDS011;59497;48.798;8.816;2024-01-27T08:12:12;4.33;;;3.07;;
71655;SDS011;59497;48.798;8.816;2024-01-27T08:14:37;7.77;;;3.83;;
71655;SDS011;59497;48.798;8.816;2024-01-27T08:17:03;9.02;;;4.25;;
71655;SDS011;59497;48.798;8.816;2024-01-27T08:19:31;7.47;;;3.70;;
71655;SDS011;59497;48.798;8.816;2024-01-27T08:21:56;5.70;;;3.80;;
71655;SDS011;59497;48.798;8.816;2024-01-27T08:24:22;7.67;;;3.33;;
71655;SDS011;59497;48.798;8.816;2024-01-27T08:26:49;7.45;;;3.53;;
71655;SDS011;59497;48.798;8.816;2024-01-27T08:29:14;6.17;;;3.20;;
71655;SDS011;59497;48.798;8.816;2024-01-27T08:31:39;78.57;;;30.97;;
71655;SDS011;59497;48.798;8.816;2024-01-27T08:34:04;36.27;;;16.33;;
71655;SDS011;59497;48.798;8.816;2024-01-27T08:36:30;20.20;;;9.03;;
71655;SDS011;59497;48.798;8.816;2024-01-27T08:38:55;7.40;;;3.20;;
71655;SDS011;59497;48.798;8.816;2024-01-27T08:41:20;7.20;;;3.40;;
71655;SDS011;59497;48.798;8.816;2024-01-27T08:43:45;6.20;;;3.63;;
71655;SDS011;59497;48.798;8.816;2024-01-27T08:46:10;9.20;;;3.90;;
71655;SDS011;59497;48.798;8.816;2024-01-27T08:48:38;8.38;;;4.97;;
71655;SDS011;59497;48.798;8.816;2024-01-27T08:51:04;12.00;;;6.27;;
71655;SDS011;59497;48.798;8.816;2024-01-27T08:53:29;13.03;;;10.47;;
71655;SDS011;59497;48.798;8.816;2024-01-27T08:55:54;10.02;;;6.53;;
71655;SDS011;59497;48.798;8.816;2024-01-27T08:58:20;11.03;;;4.50;;
71655;SDS011;59497;48.798;8.816;2024-01-27T09:00:45;9.27;;;4.63;;
71655;SDS011;59497;48.798;8.816;2024-01-27T09:03:10;6.23;;;3.67;;
71655;SDS011;59497;48.798;8.816;2024-01-27T09:05:36;7.13;;;3.43;;
71655;SDS011;59497;48.798;8.816;2024-01-27T09:08:02;9.37;;;5.17;;
71655;SDS011;59497;48.798;8.816;2024-01-27T09:10:27;8.32;;;4.90;;
71655;SDS011;59497;48.798;8.816;2024-01-27T09:12:53;14.57;;;7.63;;
71655;SDS011;59497;48.798;8.816;2024-01-27T09:15:19;6.90;;;4.00;;
71655;SDS011;59497;48.798;8.816;2024-01-27T09:17:44;5.63;;;3.60;;
71655;SDS011;59497;48.798;8.816;2024-01-27T09:20:09;9.63;;;4.90;;
71655;SDS011;59497;48.798;8.816;2024-01-27T09:22:34;8.95;;;4.18;;
71655;SDS011;59497;48.798;8.816;2024-01-27T09:25:00;6.35;;;3.60;;
71655;SDS011;59497;48.798;8.816;2024-01-27T09:27:25;6.37;;;4.13;;
71655;SDS011;59497;48.798;8.816;2024-01-27T09:29:50;7.03;;;3.67;;
71655;SDS011;59497;48.798;8.816;2024-01-27T09:32:15;9.10;;;3.20;;
71655;SDS011;59497;48.798;8.816;2024-01-27T09:34:41;6.07;;;3.20;;
71655;SDS011;59497;48.798;8.816;2024-01-27T09:37:06;8.77;;;3.63;;
71655;SDS011;59497;48.798;8.816;2024-01-27T09:39:31;9.47;;;4.00;;
71655;SDS011;59497;48.798;8.816;2024-01-27T09:41:56;5.60;;;3.30;;
71655;SDS011;59497;48.798;8.816;2024-01-27T09:44:23;6.85;;;3.58;;
71655;SDS011;59497;48.798;8.816;2024-01-27T09:46:49;8.93;;;3.83;;
71655;SDS011;59497;48.798;8.816;2024-01-27T09:49:14;9.52;;;3.67;;
71655;SDS011;59497;48.798;8.816;2024-01-27T09:51:41;7.97;;;3.70;;
71655;SDS011;59497;48.798;8.816;2024-01-27T09:54:06;6.50;;;4.20;;
71655;SDS011;59497;48.798;8.816;2024-01-27T09:56:31;14.90;;;10.23;;
71655;SDS011;59497;48.798;8.816;2024-01-27T09:58:57;15.07;;;12.57;;
71655;SDS011;59497;48.798;8.816;2024-01-27T10:01:23;11.10;;;9.30;;
71655;SDS011;59497;48.798;8.816;2024-01-27T10:03:49;8.90;;;4.60;;
71655;SDS011;59497;48.798;8.816;2024-01-27T10:06:14;36.87;;;22.17;;
71655;SDS011;59497;48.798;8.816;2024-01-27T10:08:40;23.03;;;14.77;;
71655;SDS011;59497;48.798;8.816;2024-01-27T10:11:08;10.37;;;6.23;;
71655;SDS011;59497;48.798;8.816;2024-01-27T10:13:34;9.63;;;6.80;;
71655;SDS011;59497;48.798;8.816;2024-01-27T10:18:25;8.03;;;4.23;;
71655;SDS011;59497;48.798;8.816;2024-01-27T10:20:50;10.87;;;3.43;;
71655;SDS011;59497;48.798;8.816;2024-01-27T10:23:15;7.97;;;4.20;;
71655;SDS011;59497;48.798;8.816;2024-01-27T10:25:41;9.73;;;4.20;;
71655;SDS011;59497;48.798;8.816;2024-01-27T10:28:06;11.48;;;4.20;;
71655;SDS011;59497;48.798;8.816;2024-01-27T10:30:33;13.57;;;3.78;;
71655;SDS011;59497;48.798;8.816;2024-01-27T10:32:58;7.13;;;4.80;;
71655;SDS011;59497;48.798;8.816;2024-01-27T10:35:23;9.63;;;3.90;;
71655;SDS011;59497;48.798;8.816;2024-01-27T10:37:51;8.87;;;4.20;;
71655;SDS011;59497;48.798;8.816;2024-01-27T10:40:16;12.17;;;5.23;;
71655;SDS011;59497;48.798;8.816;2024-01-27T10:42:42;8.82;;;4.82;;
71655;SDS011;59497;48.798;8.816;2024-01-27T10:45:09;11.55;;;7.28;;
71655;SDS011;59497;48.798;8.816;2024-01-27T10:47:36;10.57;;;3.58;;
71655;SDS011;59497;48.798;8.816;2024-01-27T10:50:01;7.53;;;4.33;;
71655;SDS011;59497;48.798;8.816;2024-01-27T10:52:34;7.47;;;4.10;;
71655;SDS011;59497;48.798;8.816;2024-01-27T10:55:02;6.32;;;2.80;;
71655;SDS011;59497;48.798;8.816;2024-01-27T10:57:31;6.53;;;3.17;;
71655;SDS011;59497;48.798;8.816;2024-01-27T10:59:57;7.90;;;3.40;;
71655;SDS011;59497;48.798;8.816;2024-01-27T11:02:23;9.93;;;3.60;;
71655;SDS011;59497;48.798;8.816;2024-01-27T11:04:48;10.30;;;3.37;;
71655;SDS011;59497;48.798;8.816;2024-01-27T11:07:20;9.25;;;3.42;;
71655;SDS011;59497;48.798;8.816;2024-01-27T11:09:49;7.87;;;3.27;;
71655;SDS011;59497;48.798;8.816;2024-01-27T11:12:15;8.07;;;4.13;;
71655;SDS011;59497;48.798;8.816;2024-01-27T11:14:40;9.90;;;3.00;;
71655;SDS011;59497;48.798;8.816;2024-01-27T11:17:05;7.73;;;2.70;;
71655;SDS011;59497;48.798;8.816;2024-01-27T11:19:32;8.43;;;2.47;;
71655;SDS011;59497;48.798;8.816;2024-01-27T11:22:01;13.23;;;2.67;;
71655;SDS011;59497;48.798;8.816;2024-01-27T11:24:27;14.70;;;7.70;;
71655;SDS011;59497;48.798;8.816;2024-01-27T11:29:26;15.30;;;12.43;;
71655;SDS011;59497;48.798;8.816;2024-01-27T11:31:54;8.02;;;5.68;;
71655;SDS011;59497;48.798;8.816;2024-01-27T11:34:19;8.88;;;7.30;;
71655;SDS011;59497;48.798;8.816;2024-01-27T11:36:45;8.93;;;6.83;;
71655;SDS011;59497;48.798;8.816;2024-01-27T11:39:23;13.10;;;9.20;;
71655;SDS011;59497;48.798;8.816;2024-01-27T11:41:48;8.70;;;5.75;;
71655;SDS011;59497;48.798;8.816;2024-01-27T11:44:14;7.13;;;4.23;;
71655;SDS011;59497;48.798;8.816;2024-01-27T11:46:40;10.05;;;3.72;;
71655;SDS011;59497;48.798;8.816;2024-01-27T11:49:06;7.47;;;3.17;;
71655;SDS011;59497;48.798;8.816;2024-01-27T11:51:31;6.80;;;2.60;;
71655;SDS011;59497;48.798;8.816;2024-01-27T11:53:56;8.53;;;2.97;;
71655;SDS011;59497;48.798;8.816;2024-01-27T11:56:21;4.07;;;2.93;;
71655;SDS011;59497;48.798;8.816;2024-01-27T11:58:47;6.57;;;3.07;;
71655;SDS011;59497;48.798;8.816;2024-01-27T12:01:13;9.30;;;3.07;;
71655;SDS011;59497;48.798;8.816;2024-01-27T12:03:38;7.80;;;3.60;;
71655;SDS011;59497;48.798;8.816;2024-01-27T12:06:04;6.17;;;2.90;;
71655;SDS011;59497;48.798;8.816;2024-01-27T12:08:31;5.68;;;2.78;;
71655;SDS011;59497;48.798;8.816;2024-01-27T12:10:56;6.53;;;2.97;;
71655;SDS011;59497;48.798;8.816;2024-01-27T12:13:21;8.73;;;3.17;;
71655;SDS011;59497;48.798;8.816;2024-01-27T12:15:46;6.87;;;3.30;;
71655;SDS011;59497;48.798;8.816;2024-01-27T12:18:13;7.78;;;2.80;;
71655;SDS011;59497;48.798;8.816;2024-01-27T12:20:38;5.10;;;2.50;;
71655;SDS011;59497;48.798;8.816;2024-01-27T12:23:04;6.82;;;2.90;;
71655;SDS011;59497;48.798;8.816;2024-01-27T12:25:29;5.53;;;2.67;;
71655;SDS011;59497;48.798;8.816;2024-01-27T12:27:54;8.47;;;2.97;;
71655;SDS011;59497;48.798;8.816;2024-01-27T12:30:20;5.53;;;3.17;;
71655;SDS011;59497;48.798;8.816;2024-01-27T12:32:46;5.88;;;2.50;;
71655;SDS011;59497;48.798;8.816;2024-01-27T12:35:11;4.85;;;2.42;;
71655;SDS011;59497;48.798;8.816;2024-01-27T12:37:37;6.23;;;2.10;;
71655;SDS011;59497;48.798;8.816;2024-01-27T12:40:03;4.13;;;2.00;;
71655;SDS011;59497;48.798;8.816;2024-01-27T12:42:40;3.85;;;1.80;;
71655;SDS011;59497;48.798;8.816;2024-01-27T12:45:06;6.23;;;2.07;;
71655;SDS011;59497;48.798;8.816;2024-01-27T12:47:32;3.03;;;1.45;;
71655;SDS011;59497;48.798;8.816;2024-01-27T12:49:57;2.93;;;1.53;;
71655;SDS011;59497;48.798;8.816;2024-01-27T12:52:23;4.63;;;1.67;;
71655;SDS011;59497;48.798;8.816;2024-01-27T12:54:49;6.13;;;2.20;;
71655;SDS011;59497;48.798;8.816;2024-01-27T12:57:15;5.87;;;2.20;;
71655;SDS011;59497;48.798;8.816;2024-01-27T12:59:40;6.47;;;1.67;;
71655;SDS011;59497;48.798;8.816;2024-01-27T13:02:05;6.77;;;1.60;;
71655;SDS011;59497;48.798;8.816;2024-01-27T13:04:31;6.00;;;2.23;;
71655;SDS011;59497;48.798;8.816;2024-01-27T13:06:56;6.37;;;1.80;;
71655;SDS011;59497;48.798;8.816;2024-01-27T13:09:21;3.13;;;1.08;;
71655;SDS011;59497;48.798;8.816;2024-01-27T13:11:47;2.87;;;1.37;;
71655;SDS011;59497;48.798;8.816;2024-01-27T13:14:12;4.30;;;1.10;;
71655;SDS011;59497;48.798;8.816;2024-01-27T13:16:38;3.27;;;1.30;;
71655;SDS011;59497;48.798;8.816;2024-01-27T13:19:03;3.57;;;1.10;;
71655;SDS011;59497;48.798;8.816;2024-01-27T13:21:28;5.53;;;1.40;;
71655;SDS011;59497;48.798;8.816;2024-01-27T13:23:53;5.87;;;1.77;;
71655;SDS011;59497;48.798;8.816;2024-01-27T13:26:18;4.60;;;1.20;;
71655;SDS011;59497;48.798;8.816;2024-01-27T13:28:45;5.65;;;2.10;;
71655;SDS011;59497;48.798;8.816;2024-01-27T13:31:10;4.07;;;1.73;;
71655;SDS011;59497;48.798;8.816;2024-01-27T13:33:35;5.10;;;1.23;;
71655;SDS011;59497;48.798;8.816;2024-01-27T13:36:01;3.77;;;1.60;;
71655;SDS011;59497;48.798;8.816;2024-01-27T13:38:26;3.70;;;1.50;;
71655;SDS011;59497;48.798;8.816;2024-01-27T13:40:51;3.97;;;1.53;;
71655;SDS011;59497;48.798;8.816;2024-01-27T13:43:17;3.03;;;1.27;;
71655;SDS011;59497;48.798;8.816;2024-01-27T13:45:42;3.80;;;1.60;;
71655;SDS011;59497;48.798;8.816;2024-01-27T13:48:07;2.73;;;1.20;;
71655;SDS011;59497;48.798;8.816;2024-01-27T13:50:32;1.87;;;1.47;;
71655;SDS011;59497;48.798;8.816;2024-01-27T13:52:58;3.17;;;1.53;;
71655;SDS011;59497;48.798;8.816;2024-01-27T13:55:23;6.53;;;1.97;;
71655;SDS011;59497;48.798;8.816;2024-01-27T13:57:49;2.50;;;1.33;;
71655;SDS011;59497;48.798;8.816;2024-01-27T14:00:15;3.03;;;1.27;;
71655;SDS011;59497;48.798;8.816;2024-01-27T14:02:41;6.18;;;1.42;;
71655;SDS011;59497;48.798;8.816;2024-01-27T14:05:07;4.63;;;1.70;;
71655;SDS011;59497;48.798;8.816;2024-01-27T14:07:32;5.03;;;1.77;;
71655;SDS011;59497;48.798;8.816;2024-01-27T14:09:58;3.63;;;1.80;;
71655;SDS011;59497;48.798;8.816;2024-01-27T14:12:23;2.50;;;1.50;;
71655;SDS011;59497;48.798;8.816;2024-01-27T14:14:49;5.70;;;1.30;;
71655;SDS011;59497;48.798;8.816;2024-01-27T14:17:14;2.80;;;1.40;;
71655;SDS011;59497;48.798;8.816;2024-01-27T14:19:39;2.70;;;1.15;;
71655;SDS011;59497;48.798;8.816;2024-01-27T14:22:05;4.50;;;1.13;;
71655;SDS011;59497;48.798;8.816;2024-01-27T14:24:31;3.65;;;1.48;;
71655;SDS011;59497;48.798;8.816;2024-01-27T14:26:58;3.30;;;1.30;;
71655;SDS011;59497;48.798;8.816;2024-01-27T14:29:23;2.93;;;1.47;;
71655;SDS011;59497;48.798;8.816;2024-01-27T14:31:48;3.43;;;1.50;;
71655;SDS011;59497;48.798;8.816;2024-01-27T14:34:13;4.27;;;1.30;;
71655;SDS011;59497;48.798;8.816;2024-01-27T14:36:39;3.13;;;1.33;;
71655;SDS011;59497;48.798;8.816;2024-01-27T14:39:05;2.95;;;0.95;;
71655;SDS011;59497;48.798;8.816;2024-01-27T14:41:35;3.33;;;1.20;;